createdAt,value
2023-01-17T00:00:25.752Z,98176.38
2023-01-17T00:00:57.408Z,98174.41
2023-01-17T00:01:31.814Z,98176.78
2023-01-17T00:02:04.133Z,98171.41
2023-01-17T00:02:35.949Z,98174.19
2023-01-17T00:03:07.617Z,98170.19
2023-01-17T00:03:59.680Z,98176.78
2023-01-17T00:04:59.220Z,98172.31
2023-01-17T00:05:50.877Z,98168.72
2023-01-17T00:06:43.184Z,98167.28
2023-01-17T00:07:35.714Z,98169.84
2023-01-17T00:08:30.984Z,98169.34
2023-01-17T00:09:23.495Z,98163.22
2023-01-17T00:09:57.032Z,98164.16
2023-01-17T00:10:29.092Z,98173.69
2023-01-17T00:11:00.779Z,98172.84
2023-01-17T00:11:32.464Z,98176.06
2023-01-17T00:12:05.527Z,98169.75
2023-01-17T00:12:37.645Z,98171.91
2023-01-17T00:13:09.346Z,98176.25
2023-01-17T00:13:40.978Z,98171.22
2023-01-17T00:14:12.637Z,98179.78
2023-01-17T00:14:44.596Z,98175.66
2023-01-17T00:15:19.642Z,98175.53
2023-01-17T00:15:51.345Z,98172.03
2023-01-17T00:16:23.142Z,98174.50
2023-01-17T00:16:56.113Z,98171.22
2023-01-17T00:17:29.663Z,98170.56
2023-01-17T00:18:01.308Z,98182.47
2023-01-17T00:18:35.597Z,98176.38
2023-01-17T00:19:25.559Z,98180.00
2023-01-17T00:20:17.701Z,98179.88
2023-01-17T00:21:15.953Z,98179.88
2023-01-17T00:22:13.360Z,98179.66
2023-01-17T00:23:03.764Z,98180.19
2023-01-17T00:23:53.562Z,98181.13
2023-01-17T00:24:43.369Z,98182.97
2023-01-17T00:25:46.143Z,98178.44
2023-01-17T00:26:21.785Z,98177.50
2023-01-17T00:27:11.868Z,98177.50
2023-01-17T00:27:43.452Z,98178.31
2023-01-17T00:28:18.135Z,98180.78
2023-01-17T00:28:49.738Z,98176.38
2023-01-17T00:29:21.340Z,98175.44
2023-01-17T00:29:52.982Z,98170.28
2023-01-17T00:30:25.946Z,98172.97
2023-01-17T00:30:57.972Z,98178.03
2023-01-17T00:31:29.579Z,98178.63
2023-01-17T00:32:01.182Z,98176.16
2023-01-17T00:32:39.749Z,98179.56
2023-01-17T00:33:11.512Z,98175.44
2023-01-17T00:33:43.278Z,98175.22
2023-01-17T00:34:14.868Z,98173.47
2023-01-17T00:34:48.313Z,98175.84
2023-01-17T00:35:22.545Z,98164.59
2023-01-17T00:35:56.069Z,98162.72
2023-01-17T00:36:27.678Z,98173.16
2023-01-17T00:37:01.396Z,98167.88
2023-01-17T00:37:35.619Z,98169.53
2023-01-17T00:38:11.318Z,98173.75
2023-01-17T00:38:42.934Z,98170.56
2023-01-17T00:39:14.530Z,98172.22
2023-01-17T00:39:46.106Z,98169.34
2023-01-17T00:40:17.889Z,98166.63
2023-01-17T00:40:50.536Z,98170.75
2023-01-17T00:41:22.110Z,98167.47
2023-01-17T00:41:53.680Z,98169.22
2023-01-17T00:42:25.280Z,98167.47
2023-01-17T00:43:15.756Z,98163.81
2023-01-17T00:44:05.615Z,98158.53
2023-01-17T00:44:55.515Z,98152.44
2023-01-17T00:45:48.628Z,98147.28
2023-01-17T00:46:39.110Z,98153.06
2023-01-17T00:47:29.781Z,98146.13
2023-01-17T00:48:20.026Z,98158.25
2023-01-17T00:49:10.671Z,98153.19
2023-01-17T00:50:00.871Z,98150.19
2023-01-17T00:50:51.813Z,98153.38
2023-01-17T00:51:44.842Z,98158.34
2023-01-17T00:52:34.956Z,98160.72
2023-01-17T00:53:25.072Z,98160.13
2023-01-17T00:54:17.508Z,98164.53
2023-01-17T00:55:09.228Z,98161.25
2023-01-17T00:55:59.308Z,98155.25
2023-01-17T00:56:51.877Z,98153.38
2023-01-17T00:57:42.009Z,98154.94
2023-01-17T00:58:32.110Z,98160.19
2023-01-17T00:59:22.344Z,98154.94
2023-01-17T01:00:14.860Z,98160.94
2023-01-17T01:01:05.132Z,98158.94
2023-01-17T01:01:57.531Z,98157.19
2023-01-17T01:02:48.343Z,98157.94
2023-01-17T01:03:38.833Z,98161.44
2023-01-17T01:04:29.058Z,98162.59
2023-01-17T01:05:20.263Z,98156.72
2023-01-17T01:06:10.653Z,98165.81
2023-01-17T01:07:01.367Z,98165.59
2023-01-17T01:07:51.912Z,98168.41
2023-01-17T01:08:47.943Z,98177.16
2023-01-17T01:09:38.541Z,98186.69
2023-01-17T01:10:28.934Z,98179.75
2023-01-17T01:11:19.001Z,98183.16
2023-01-17T01:12:09.157Z,98181.41
2023-01-17T01:12:59.637Z,98180.56
2023-01-17T01:13:50.576Z,98187.00
2023-01-17T01:14:40.951Z,98181.50
2023-01-17T01:15:33.469Z,98183.91
2023-01-17T01:16:25.875Z,98187.72
2023-01-17T01:17:15.963Z,98188.31
2023-01-17T01:18:05.863Z,98181.31
2023-01-17T01:18:56.241Z,98188.31
2023-01-17T01:19:55.000Z,98183.16
2023-01-17T01:20:45.215Z,98185.75
2023-01-17T01:21:35.666Z,98182.25
2023-01-17T01:22:28.155Z,98185.75
2023-01-17T01:23:24.709Z,98180.50
2023-01-17T01:24:14.786Z,98184.31
2023-01-17T01:25:05.283Z,98187.50
2023-01-17T01:25:55.577Z,98184.22
2023-01-17T01:26:46.131Z,98189.25
2023-01-17T01:27:38.641Z,98194.44
2023-01-17T01:28:31.777Z,98187.63
2023-01-17T01:29:22.075Z,98191.97
2023-01-17T01:30:13.786Z,98194.25
2023-01-17T01:31:05.575Z,98194.44
2023-01-17T01:31:55.948Z,98193.50
2023-01-17T01:32:46.524Z,98196.81
2023-01-17T01:33:23.447Z,98195.78
2023-01-17T01:33:56.191Z,98193.09
2023-01-17T01:34:27.864Z,98195.78
2023-01-17T01:35:01.813Z,98189.16
2023-01-17T01:35:33.519Z,98190.84
2023-01-17T01:36:13.131Z,98186.50
2023-01-17T01:36:44.810Z,98183.06
2023-01-17T01:37:17.580Z,98183.16
2023-01-17T01:37:56.521Z,98185.75
2023-01-17T01:38:28.255Z,98179.66
2023-01-17T01:39:00.015Z,98187.31
2023-01-17T01:39:31.711Z,98181.22
2023-01-17T01:40:03.866Z,98182.75
2023-01-17T01:40:38.358Z,98185.22
2023-01-17T01:41:10.007Z,98180.03
2023-01-17T01:41:41.650Z,98173.97
2023-01-17T01:42:24.071Z,98174.16
2023-01-17T01:42:58.197Z,98177.38
2023-01-17T01:43:41.864Z,98176.63
2023-01-17T01:44:46.295Z,98166.22
2023-01-17T01:45:24.460Z,98155.88
2023-01-17T01:46:00.259Z,98158.94
2023-01-17T01:46:43.611Z,98154.72
2023-01-17T01:47:24.051Z,98152.13
2023-01-17T01:48:02.784Z,98149.84
2023-01-17T01:49:05.690Z,98143.03
2023-01-17T01:49:38.513Z,98142.97
2023-01-17T01:50:12.404Z,98149.56
2023-01-17T01:50:44.097Z,98144.50
2023-01-17T01:51:40.176Z,98136.84
2023-01-17T01:52:12.518Z,98142.03
2023-01-17T01:52:51.103Z,98143.78
2023-01-17T01:53:24.297Z,98141.19
2023-01-17T01:54:05.180Z,98141.28
2023-01-17T01:55:08.343Z,98140.25
2023-01-17T01:55:45.639Z,98141.19
2023-01-17T01:56:19.965Z,98144.69
2023-01-17T01:56:54.535Z,98137.88
2023-01-17T01:57:32.237Z,98143.25
2023-01-17T01:58:18.799Z,98137.69
2023-01-17T01:58:53.185Z,98135.81
2023-01-17T01:59:26.155Z,98136.75
2023-01-17T02:00:29.882Z,98145.09
2023-01-17T02:01:01.867Z,98141.19
2023-01-17T02:01:33.752Z,98149.66
2023-01-17T02:02:07.542Z,98144.38
2023-01-17T02:02:39.448Z,98145.31
2023-01-17T02:03:17.758Z,98145.22
2023-01-17T02:03:52.733Z,98147.78
2023-01-17T02:04:28.292Z,98152.03
2023-01-17T02:05:02.513Z,98148.41
2023-01-17T02:05:36.584Z,98149.94
2023-01-17T02:06:29.995Z,98147.69
2023-01-17T02:07:10.472Z,98147.78
2023-01-17T02:07:50.257Z,98152.97
2023-01-17T02:08:24.102Z,98149.44
2023-01-17T02:09:00.885Z,98147.69
2023-01-17T02:09:32.746Z,98147.59
2023-01-17T02:10:07.091Z,98145.00
2023-01-17T02:10:41.775Z,98146.97
2023-01-17T02:11:13.675Z,98144.28
2023-01-17T02:11:48.861Z,98146.75
2023-01-17T02:12:23.902Z,98144.28
2023-01-17T02:12:56.257Z,98140.16
2023-01-17T02:13:28.552Z,98151.31
2023-01-17T02:14:02.113Z,98144.28
2023-01-17T02:14:33.794Z,98139.94
2023-01-17T02:15:11.436Z,98138.50
2023-01-17T02:16:14.373Z,98142.03
2023-01-17T02:16:57.921Z,98140.03
2023-01-17T02:18:01.638Z,98139.31
2023-01-17T02:19:23.010Z,98141.91
2023-01-17T02:20:24.439Z,98131.69
2023-01-17T02:21:11.610Z,98137.69
2023-01-17T02:21:51.268Z,98135.28
2023-01-17T02:22:32.021Z,98136.03
2023-01-17T02:23:26.563Z,98135.09
2023-01-17T02:24:48.498Z,98136.03
2023-01-17T02:25:32.317Z,98134.16
2023-01-17T02:26:03.994Z,98127.34
2023-01-17T02:26:56.557Z,98132.28
2023-01-17T02:28:04.316Z,98133.00
2023-01-17T02:28:46.968Z,98132.28
2023-01-17T02:29:43.475Z,98127.13
2023-01-17T02:30:39.413Z,98133.00
2023-01-17T02:31:21.294Z,98130.13
2023-01-17T02:32:05.124Z,98130.84
2023-01-17T02:32:55.213Z,98128.16
2023-01-17T02:33:55.323Z,98126.28
2023-01-17T02:34:51.263Z,98132.28
2023-01-17T02:35:42.297Z,98128.75
2023-01-17T02:36:23.162Z,98121.75
2023-01-17T02:37:23.241Z,98127.28
2023-01-17T02:38:01.770Z,98118.22
2023-01-17T02:38:58.179Z,98119.97
2023-01-17T02:39:40.182Z,98113.75
2023-01-17T02:40:25.061Z,98116.13
2023-01-17T02:41:07.606Z,98111.19
2023-01-17T02:41:46.094Z,98109.19
2023-01-17T02:42:26.433Z,98107.22
2023-01-17T02:43:07.437Z,98102.06
2023-01-17T02:43:40.237Z,98096.19
2023-01-17T02:44:17.054Z,98094.31
2023-01-17T02:44:50.716Z,98092.66
2023-01-17T02:45:22.920Z,98097.00
2023-01-17T02:45:54.757Z,98090.91
2023-01-17T02:46:26.462Z,98095.00
2023-01-17T02:46:59.354Z,98088.91
2023-01-17T02:47:32.512Z,98085.38
2023-01-17T02:48:08.179Z,98083.53
2023-01-17T02:48:40.258Z,98087.06
2023-01-17T02:49:11.986Z,98092.94
2023-01-17T02:49:43.665Z,98090.34
2023-01-17T02:50:25.462Z,98098.81
2023-01-17T02:51:36.772Z,98093.44
2023-01-17T02:52:55.755Z,98084.94
2023-01-17T02:53:36.194Z,98084.63
2023-01-17T02:54:22.134Z,98080.28
2023-01-17T02:55:12.202Z,98074.28
2023-01-17T02:55:58.309Z,98070.63
2023-01-17T02:56:42.004Z,98075.63
2023-01-17T02:57:37.352Z,98077.38
2023-01-17T02:58:18.891Z,98074.16
2023-01-17T02:59:20.792Z,98073.22
2023-01-17T03:00:01.709Z,98073.84
2023-01-17T03:00:58.142Z,98070.31
2023-01-17T03:01:42.007Z,98059.34
2023-01-17T03:02:30.767Z,98064.53
2023-01-17T03:03:31.817Z,98061.63
2023-01-17T03:04:12.539Z,98059.84
2023-01-17T03:05:21.369Z,98058.22
2023-01-17T03:06:05.865Z,98059.34
2023-01-17T03:06:54.629Z,98056.06
2023-01-17T03:07:28.284Z,98061.94
2023-01-17T03:08:02.119Z,98054.91
2023-01-17T03:08:34.484Z,98059.16
2023-01-17T03:09:10.401Z,98055.75
2023-01-17T03:09:48.185Z,98058.34
2023-01-17T03:10:21.651Z,98052.22
2023-01-17T03:10:53.831Z,98065.97
2023-01-17T03:11:27.203Z,98057.50
2023-01-17T03:12:06.739Z,98058.53
2023-01-17T03:12:40.497Z,98055.81
2023-01-17T03:13:17.250Z,98049.84
2023-01-17T03:13:49.209Z,98054.91
2023-01-17T03:14:22.088Z,98051.59
2023-01-17T03:14:53.792Z,98052.41
2023-01-17T03:15:25.693Z,98045.41
2023-01-17T03:15:59.377Z,98047.16
2023-01-17T03:16:33.997Z,98045.72
2023-01-17T03:17:05.755Z,98046.66
2023-01-17T03:17:40.990Z,98054.19
2023-01-17T03:18:17.006Z,98055.81
2023-01-17T03:18:49.370Z,98048.19
2023-01-17T03:19:23.108Z,98046.44
2023-01-17T03:19:54.747Z,98043.84
2023-01-17T03:20:29.557Z,98042.00
2023-01-17T03:21:01.237Z,98048.69
2023-01-17T03:21:35.093Z,98033.41
2023-01-17T03:22:06.749Z,98034.13
2023-01-17T03:22:39.089Z,98035.75
2023-01-17T03:23:10.757Z,98036.69
2023-01-17T03:23:42.440Z,98031.41
2023-01-17T03:24:16.906Z,98029.66
2023-01-17T03:24:50.867Z,98020.81
2023-01-17T03:25:31.247Z,98022.50
2023-01-17T03:26:02.932Z,98017.34
2023-01-17T03:26:34.648Z,98025.78
2023-01-17T03:27:06.436Z,98013.69
2023-01-17T03:27:40.819Z,98017.09
2023-01-17T03:28:14.778Z,98022.28
2023-01-17T03:28:46.480Z,98019.69
2023-01-17T03:29:20.220Z,98013.69
2023-01-17T03:29:51.880Z,98011.09
2023-01-17T03:30:23.607Z,98017.09
2023-01-17T03:30:55.491Z,98017.91
2023-01-17T03:31:27.169Z,98014.19
2023-01-17T03:31:58.837Z,98011.69
2023-01-17T03:32:30.523Z,98011.69
2023-01-17T03:33:02.202Z,98008.16
2023-01-17T03:33:36.073Z,98007.44
2023-01-17T03:34:07.711Z,98009.44
2023-01-17T03:34:39.363Z,98007.44
2023-01-17T03:35:11.009Z,98008.88
2023-01-17T03:35:46.384Z,98007.13
2023-01-17T03:36:18.616Z,98011.34
2023-01-17T03:36:50.257Z,98017.22
2023-01-17T03:37:30.565Z,98016.41
2023-01-17T03:38:07.741Z,98014.53
2023-01-17T03:38:39.441Z,98021.38
2023-01-17T03:39:11.698Z,98019.63
2023-01-17T03:39:43.323Z,98017.94
2023-01-17T03:40:15.142Z,98018.88
2023-01-17T03:40:48.310Z,98019.00
2023-01-17T03:41:19.964Z,98019.22
2023-01-17T03:41:51.812Z,98026.75
2023-01-17T03:42:23.491Z,98016.41
2023-01-17T03:42:57.333Z,98021.00
2023-01-17T03:43:28.995Z,98011.34
2023-01-17T03:44:00.991Z,98015.59
2023-01-17T03:44:34.217Z,98010.28
2023-01-17T03:45:06.235Z,98011.22
2023-01-17T03:45:38.033Z,98010.19
2023-01-17T03:46:24.518Z,98016.19
2023-01-17T03:46:57.469Z,98015.47
2023-01-17T03:47:29.112Z,98009.00
2023-01-17T03:48:00.890Z,98015.72
2023-01-17T03:48:32.659Z,98008.66
2023-01-17T03:49:04.299Z,98013.81
2023-01-17T03:49:35.917Z,98013.69
2023-01-17T03:50:08.202Z,98011.13
2023-01-17T03:50:39.831Z,98004.66
2023-01-17T03:51:14.050Z,98011.47
2023-01-17T03:51:47.597Z,98009.47
2023-01-17T03:52:19.312Z,98010.53
2023-01-17T03:52:51.317Z,98010.41
2023-01-17T03:53:23.061Z,98007.00
2023-01-17T03:53:54.730Z,98014.75
2023-01-17T03:54:26.350Z,98011.22
2023-01-17T03:54:58.001Z,98015.72
2023-01-17T03:55:29.672Z,98014.88
2023-01-17T03:56:01.323Z,98013.13
2023-01-17T03:56:32.936Z,98011.22
2023-01-17T03:57:04.976Z,98016.19
2023-01-17T03:57:36.676Z,98014.66
2023-01-17T03:58:08.294Z,98013.00
2023-01-17T03:58:40.325Z,98016.53
2023-01-17T03:59:13.229Z,98013.00
2023-01-17T03:59:48.656Z,98015.72
2023-01-17T04:00:20.957Z,98016.41
2023-01-17T04:00:52.654Z,98013.69
2023-01-17T04:01:25.079Z,98016.19
2023-01-17T04:01:56.884Z,98012.75
2023-01-17T04:02:28.597Z,98011.94
2023-01-17T04:03:00.265Z,98022.53
2023-01-17T04:03:31.914Z,98016.66
2023-01-17T04:04:03.757Z,98016.66
2023-01-17T04:04:35.409Z,98012.88
2023-01-17T04:05:07.369Z,98013.50
2023-01-17T04:05:40.401Z,98006.69
2023-01-17T04:06:12.070Z,98008.19
2023-01-17T04:06:44.288Z,98000.44
2023-01-17T04:07:18.569Z,98004.56
2023-01-17T04:07:51.726Z,98002.91
2023-01-17T04:08:26.125Z,98007.25
2023-01-17T04:08:57.746Z,98004.66
2023-01-17T04:09:33.960Z,97998.09
2023-01-17T04:10:06.302Z,98005.72
2023-01-17T04:10:37.957Z,98007.25
2023-01-17T04:11:09.615Z,98005.50
2023-01-17T04:11:41.235Z,98005.63
2023-01-17T04:12:12.961Z,98005.63
2023-01-17T04:12:47.165Z,98007.25
2023-01-17T04:13:18.902Z,98002.09
2023-01-17T04:13:56.457Z,98007.38
2023-01-17T04:14:28.137Z,98015.97
2023-01-17T04:14:59.774Z,98014.06
2023-01-17T04:15:31.481Z,98011.59
2023-01-17T04:16:06.905Z,98015.72
2023-01-17T04:16:38.866Z,98021.72
2023-01-17T04:17:12.710Z,98020.69
2023-01-17T04:17:44.431Z,98019.94
2023-01-17T04:18:21.003Z,98023.28
2023-01-17T04:18:54.753Z,98031.03
2023-01-17T04:19:26.462Z,98024.91
2023-01-17T04:19:58.134Z,98017.16
2023-01-17T04:20:39.241Z,98018.81
2023-01-17T04:21:10.935Z,98022.91
2023-01-17T04:21:42.567Z,98028.81
2023-01-17T04:22:14.494Z,98024.47
2023-01-17T04:22:46.134Z,98020.31
2023-01-17T04:23:18.264Z,98026.22
2023-01-17T04:23:50.151Z,98019.50
2023-01-17T04:24:21.765Z,98020.44
2023-01-17T04:24:53.461Z,98022.91
2023-01-17T04:25:25.784Z,98020.94
2023-01-17T04:25:57.437Z,98018.56
2023-01-17T04:26:29.090Z,98028.22
2023-01-17T04:27:09.108Z,98018.09
2023-01-17T04:27:40.781Z,98020.44
2023-01-17T04:28:12.696Z,98020.25
2023-01-17T04:28:44.599Z,98028.00
2023-01-17T04:29:16.307Z,98021.28
2023-01-17T04:29:50.031Z,98018.91
2023-01-17T04:30:21.681Z,98017.97
2023-01-17T04:30:53.364Z,98022.31
2023-01-17T04:31:27.392Z,98016.91
2023-01-17T04:31:59.059Z,98021.28
2023-01-17T04:32:31.493Z,98020.31
2023-01-17T04:33:04.385Z,98020.25
2023-01-17T04:33:36.041Z,98026.31
2023-01-17T04:34:07.689Z,98029.84
2023-01-17T04:34:39.318Z,98030.78
2023-01-17T04:35:11.189Z,98027.38
2023-01-17T04:35:42.812Z,98026.31
2023-01-17T04:36:18.248Z,98026.31
2023-01-17T04:36:52.022Z,98024.69
2023-01-17T04:37:23.666Z,98018.56
2023-01-17T04:37:57.045Z,98018.56
2023-01-17T04:38:28.727Z,98020.69
2023-01-17T04:39:00.357Z,98026.44
2023-01-17T04:39:31.972Z,98025.41
2023-01-17T04:40:07.445Z,98025.50
2023-01-17T04:40:39.087Z,98016.91
2023-01-17T04:41:10.815Z,98024.47
2023-01-17T04:41:43.854Z,98020.13
2023-01-17T04:42:15.466Z,98021.88
2023-01-17T04:42:48.172Z,98026.22
2023-01-17T04:43:22.203Z,98015.06
2023-01-17T04:43:53.929Z,98025.63
2023-01-17T04:44:25.559Z,98019.03
2023-01-17T04:44:58.564Z,98023.97
2023-01-17T04:45:32.481Z,98021.88
2023-01-17T04:46:05.878Z,98025.16
2023-01-17T04:46:37.552Z,98030.22
2023-01-17T04:47:09.179Z,98027.63
2023-01-17T04:47:41.200Z,98033.63
2023-01-17T04:48:12.944Z,98030.34
2023-01-17T04:48:44.592Z,98034.56
2023-01-17T04:49:16.206Z,98036.22
2023-01-17T04:49:49.639Z,98033.06
2023-01-17T04:50:21.303Z,98035.53
2023-01-17T04:51:00.652Z,98038.00
2023-01-17T04:51:32.329Z,98031.28
2023-01-17T04:52:06.425Z,98031.16
2023-01-17T04:52:38.128Z,98042.47
2023-01-17T04:53:09.801Z,98037.16
2023-01-17T04:53:41.590Z,98037.28
2023-01-17T04:54:13.280Z,98032.00
2023-01-17T04:54:45.270Z,98034.38
2023-01-17T04:55:16.942Z,98038.59
2023-01-17T04:55:48.625Z,98032.69
2023-01-17T04:56:27.731Z,98037.03
2023-01-17T04:56:59.356Z,98036.47
2023-01-17T04:57:32.222Z,98034.09
2023-01-17T04:58:04.119Z,98029.53
2023-01-17T04:58:35.770Z,98029.53
2023-01-17T04:59:07.432Z,98027.63
2023-01-17T04:59:41.678Z,98026.13
2023-01-17T05:00:13.863Z,98027.63
2023-01-17T05:00:48.632Z,98026.81
2023-01-17T05:01:20.452Z,98026.94
2023-01-17T05:01:52.139Z,98035.41
2023-01-17T05:02:24.984Z,98028.47
2023-01-17T05:02:56.775Z,98036.97
2023-01-17T05:03:29.494Z,98035.28
2023-01-17T05:04:01.186Z,98025.88
2023-01-17T05:04:32.824Z,98030.94
2023-01-17T05:05:04.909Z,98035.53
2023-01-17T05:05:36.565Z,98028.09
2023-01-17T05:06:08.267Z,98034.81
2023-01-17T05:06:41.466Z,98040.00
2023-01-17T05:07:15.690Z,98030.59
2023-01-17T05:07:55.744Z,98031.63
2023-01-17T05:08:29.816Z,98037.63
2023-01-17T05:09:02.860Z,98030.78
2023-01-17T05:09:34.479Z,98028.31
2023-01-17T05:10:06.531Z,98035.75
2023-01-17T05:10:40.067Z,98040.94
2023-01-17T05:11:11.707Z,98032.22
2023-01-17T05:11:45.275Z,98039.16
2023-01-17T05:12:16.944Z,98035.63
2023-01-17T05:12:56.709Z,98039.88
2023-01-17T05:13:28.342Z,98036.47
2023-01-17T05:14:00.215Z,98035.53
2023-01-17T05:14:37.032Z,98034.81
2023-01-17T05:15:12.482Z,98035.63
2023-01-17T05:15:46.402Z,98036.22
2023-01-17T05:16:19.481Z,98027.88
2023-01-17T05:16:56.484Z,98035.03
2023-01-17T05:17:28.152Z,98029.97
2023-01-17T05:17:59.814Z,98034.09
2023-01-17T05:18:31.516Z,98034.00
2023-01-17T05:19:03.291Z,98042.59
2023-01-17T05:19:37.339Z,98038.34
2023-01-17T05:20:09.453Z,98038.09
2023-01-17T05:20:41.470Z,98039.06
2023-01-17T05:21:13.581Z,98041.41
2023-01-17T05:21:47.286Z,98034.69
2023-01-17T05:22:18.957Z,98037.88
2023-01-17T05:22:57.330Z,98040.69
2023-01-17T05:23:31.065Z,98037.41
2023-01-17T05:24:05.101Z,98041.53
2023-01-17T05:24:39.250Z,98038.22
2023-01-17T05:25:10.929Z,98044.22
2023-01-17T05:25:44.373Z,98036.47
2023-01-17T05:26:16.313Z,98044.22
2023-01-17T05:26:54.735Z,98040.94
2023-01-17T05:27:26.999Z,98037.41
2023-01-17T05:28:02.412Z,98042.59
2023-01-17T05:28:34.061Z,98044.44
2023-01-17T05:29:05.790Z,98038.34
2023-01-17T05:29:37.627Z,98044.44
2023-01-17T05:30:10.098Z,98037.41
2023-01-17T05:30:41.832Z,98045.88
2023-01-17T05:31:13.619Z,98036.69
2023-01-17T05:31:45.281Z,98043.53
2023-01-17T05:32:16.908Z,98034.00
2023-01-17T05:32:53.361Z,98045.16
2023-01-17T05:33:27.899Z,98043.53
2023-01-17T05:33:59.540Z,98051.16
2023-01-17T05:34:32.004Z,98052.09
2023-01-17T05:35:03.807Z,98050.34
2023-01-17T05:35:35.915Z,98051.03
2023-01-17T05:36:08.026Z,98052.69
2023-01-17T05:36:39.668Z,98052.81
2023-01-17T05:37:12.871Z,98056.22
2023-01-17T05:37:49.193Z,98057.88
2023-01-17T05:38:20.890Z,98060.56
2023-01-17T05:38:52.532Z,98054.78
2023-01-17T05:39:24.145Z,98055.53
2023-01-17T05:39:55.751Z,98056.22
2023-01-17T05:40:30.820Z,98059.25
2023-01-17T05:41:04.724Z,98058.31
2023-01-17T05:41:36.351Z,98065.38
2023-01-17T05:42:09.728Z,98057.50
2023-01-17T05:42:47.888Z,98070.31
2023-01-17T05:43:20.340Z,98073.84
2023-01-17T05:43:53.604Z,98079.97
2023-01-17T05:44:28.583Z,98074.66
2023-01-17T05:45:00.216Z,98076.53
2023-01-17T05:45:33.457Z,98080.78
2023-01-17T05:46:12.728Z,98072.19
2023-01-17T05:46:44.414Z,98077.38
2023-01-17T05:47:16.082Z,98077.97
2023-01-17T05:47:50.717Z,98079.84
2023-01-17T05:48:22.422Z,98079.84
2023-01-17T05:48:54.062Z,98081.28
2023-01-17T05:49:25.795Z,98092.31
2023-01-17T05:49:57.394Z,98090.31
2023-01-17T05:50:35.273Z,98086.56
2023-01-17T05:51:06.948Z,98090.81
2023-01-17T05:51:39.624Z,98093.41
2023-01-17T05:52:11.290Z,98095.03
2023-01-17T05:52:54.775Z,98097.75
2023-01-17T05:53:26.415Z,98089.59
2023-01-17T05:53:58.179Z,98098.31
2023-01-17T05:54:32.707Z,98098.19
2023-01-17T05:55:06.675Z,98104.06
2023-01-17T05:55:39.503Z,98099.00
2023-01-17T05:56:13.866Z,98099.94
2023-01-17T05:56:45.577Z,98101.09
2023-01-17T05:57:20.049Z,98097.47
2023-01-17T05:57:51.979Z,98101.34
2023-01-17T05:58:23.632Z,98101.84
2023-01-17T05:58:55.295Z,98104.44
2023-01-17T05:59:36.533Z,98108.66
2023-01-17T06:00:09.804Z,98109.59
2023-01-17T06:00:42.287Z,98101.09
2023-01-17T06:01:14.054Z,98105.44
2023-01-17T06:01:48.581Z,98113.09
2023-01-17T06:02:21.849Z,98106.41
2023-01-17T06:02:55.428Z,98104.75
2023-01-17T06:03:29.738Z,98106.41
2023-01-17T06:04:01.387Z,98110.75
2023-01-17T06:04:33.213Z,98121.78
2023-01-17T06:05:05.560Z,98112.28
2023-01-17T06:05:37.807Z,98107.91
2023-01-17T06:06:16.905Z,98121.31
2023-01-17T06:06:50.927Z,98119.88
2023-01-17T06:07:22.611Z,98120.22
2023-01-17T06:07:54.848Z,98115.34
2023-01-17T06:08:28.688Z,98117.84
2023-01-17T06:09:09.552Z,98118.78
2023-01-17T06:09:41.228Z,98120.66
2023-01-17T06:10:15.477Z,98113.22
2023-01-17T06:10:47.614Z,98119.75
2023-01-17T06:11:19.447Z,98125.88
2023-01-17T06:11:52.324Z,98123.91
2023-01-17T06:12:23.954Z,98118.00
2023-01-17T06:13:09.864Z,98113.78
2023-01-17T06:13:41.615Z,98123.41
2023-01-17T06:14:13.241Z,98119.69
2023-01-17T06:14:47.555Z,98123.41
2023-01-17T06:15:20.394Z,98124.22
2023-01-17T06:15:52.364Z,98125.06
2023-01-17T06:16:29.108Z,98125.88
2023-01-17T06:17:00.824Z,98124.84
2023-01-17T06:17:32.519Z,98121.22
2023-01-17T06:18:07.955Z,98118.75
2023-01-17T06:18:39.661Z,98120.38
2023-01-17T06:19:11.312Z,98126.31
2023-01-17T06:19:43.046Z,98120.66
2023-01-17T06:20:14.700Z,98126.88
2023-01-17T06:20:48.903Z,98121.06
2023-01-17T06:21:20.634Z,98122.00
2023-01-17T06:21:52.314Z,98126.13
2023-01-17T06:22:25.169Z,98120.59
2023-01-17T06:22:56.858Z,98121.63
2023-01-17T06:23:28.534Z,98127.63
2023-01-17T06:24:00.558Z,98124.22
2023-01-17T06:24:33.912Z,98121.75
2023-01-17T06:25:07.892Z,98125.97
2023-01-17T06:25:47.887Z,98127.25
2023-01-17T06:26:19.719Z,98129.75
2023-01-17T06:26:51.402Z,98127.34
2023-01-17T06:27:23.067Z,98128.28
2023-01-17T06:27:55.355Z,98136.56
2023-01-17T06:28:27.043Z,98130.56
2023-01-17T06:29:01.036Z,98127.47
2023-01-17T06:29:34.859Z,98137.00
2023-01-17T06:30:07.291Z,98135.38
2023-01-17T06:30:43.724Z,98140.75
2023-01-17T06:31:15.494Z,98140.06
2023-01-17T06:31:47.109Z,98139.72
2023-01-17T06:32:20.985Z,98144.97
2023-01-17T06:32:55.537Z,98145.44
2023-01-17T06:33:27.221Z,98147.19
2023-01-17T06:34:04.479Z,98156.56
2023-01-17T06:34:37.752Z,98147.84
2023-01-17T06:35:09.637Z,98152.44
2023-01-17T06:35:48.150Z,98152.06
2023-01-17T06:36:21.446Z,98144.88
2023-01-17T06:36:53.438Z,98151.69
2023-01-17T06:37:25.728Z,98151.69
2023-01-17T06:37:58.311Z,98156.63
2023-01-17T06:38:30.154Z,98159.22
2023-01-17T06:39:10.984Z,98152.66
2023-01-17T06:39:42.627Z,98162.75
2023-01-17T06:40:14.353Z,98162.75
2023-01-17T06:40:46.026Z,98158.47
2023-01-17T06:41:17.662Z,98148.38
2023-01-17T06:41:49.358Z,98161.25
2023-01-17T06:42:23.882Z,98159.22
2023-01-17T06:43:02.812Z,98158.41
2023-01-17T06:43:37.372Z,98160.91
2023-01-17T06:44:09.902Z,98159.22
2023-01-17T06:44:41.561Z,98160.41
2023-01-17T06:45:13.292Z,98167.66
2023-01-17T06:45:52.521Z,98159.88
2023-01-17T06:46:24.276Z,98165.50
2023-01-17T06:46:56.020Z,98170.53
2023-01-17T06:47:36.436Z,98165.59
2023-01-17T06:48:08.132Z,98171.47
2023-01-17T06:48:42.593Z,98172.41
2023-01-17T06:49:14.844Z,98173.78
2023-01-17T06:49:46.891Z,98172.00
2023-01-17T06:50:18.657Z,98174.47
2023-01-17T06:50:51.784Z,98176.94
2023-01-17T06:51:23.422Z,98177.78
2023-01-17T06:51:57.241Z,98184.13
2023-01-17T06:52:28.903Z,98179.66
2023-01-17T06:53:03.225Z,98186.94
2023-01-17T06:53:44.026Z,98184.34
2023-01-17T06:54:15.703Z,98186.09
2023-01-17T06:54:47.397Z,98189.22
2023-01-17T06:55:19.195Z,98182.41
2023-01-17T06:55:51.092Z,98194.50
2023-01-17T06:56:22.734Z,98188.19
2023-01-17T06:56:54.553Z,98190.66
2023-01-17T06:57:26.201Z,98189.03
2023-01-17T06:58:02.025Z,98194.91
2023-01-17T06:58:33.822Z,98195.97
2023-01-17T06:59:09.007Z,98195.84
2023-01-17T06:59:43.492Z,98198.16
2023-01-17T07:00:15.874Z,98190.63
2023-01-17T07:00:47.657Z,98205.41
2023-01-17T07:01:19.663Z,98200.75
2023-01-17T07:01:51.426Z,98200.50
2023-01-17T07:02:23.243Z,98197.91
2023-01-17T07:02:54.951Z,98204.75
2023-01-17T07:03:27.331Z,98206.41
2023-01-17T07:03:59.217Z,98196.91
2023-01-17T07:04:30.943Z,98201.44
2023-01-17T07:05:02.588Z,98206.41
2023-01-17T07:05:35.093Z,98206.03
2023-01-17T07:06:09.610Z,98206.72
2023-01-17T07:06:41.261Z,98210.16
2023-01-17T07:07:15.287Z,98202.50
2023-01-17T07:07:47.153Z,98208.38
2023-01-17T07:08:20.500Z,98211.78
2023-01-17T07:08:52.703Z,98210.16
2023-01-17T07:09:24.408Z,98210.97
2023-01-17T07:09:56.034Z,98212.84
2023-01-17T07:10:28.982Z,98208.50
2023-01-17T07:11:07.976Z,98213.91
2023-01-17T07:11:41.126Z,98219.78
2023-01-17T07:12:15.749Z,98216.38